sensor_id;sensor_type;location;lat;lon;timestamp;P1;durP1;ratioP1;P2;durP2;ratioP2
2644;SDS011;15377;48.540;9.268;2022-11-12T00:00:24;27.30;;;19.03;;
2644;SDS011;15377;48.540;9.268;2022-11-12T00:02:49;27.77;;;18.63;;
2644;SDS011;15377;48.540;9.268;2022-11-12T00:05:15;25.03;;;17.90;;
2644;SDS011;15377;48.540;9.268;2022-11-12T00:07:40;28.47;;;19.30;;
2644;SDS011;15377;48.540;9.268;2022-11-12T00:10:05;23.90;;;17.07;;
2644;SDS011;15377;48.540;9.268;2022-11-12T00:12:31;24.77;;;18.47;;
2644;SDS011;15377;48.540;9.268;2022-11-12T00:14:56;26.43;;;18.03;;
2644;SDS011;15377;48.540;9.268;2022-11-12T00:17:22;23.03;;;16.77;;
2644;SDS011;15377;48.540;9.268;2022-11-12T00:19:47;24.93;;;17.30;;
2644;SDS011;15377;48.540;9.268;2022-11-12T00:22:13;20.73;;;15.33;;
2644;SDS011;15377;48.540;9.268;2022-11-12T00:24:38;22.73;;;15.43;;
2644;SDS011;15377;48.540;9.268;2022-11-12T00:27:03;24.60;;;16.50;;
2644;SDS011;15377;48.540;9.268;2022-11-12T00:29:29;27.67;;;16.80;;
2644;SDS011;15377;48.540;9.268;2022-11-12T00:31:54;33.63;;;16.50;;
2644;SDS011;15377;48.540;9.268;2022-11-12T00:34:19;27.37;;;16.37;;
2644;SDS011;15377;48.540;9.268;2022-11-12T00:36:45;23.97;;;16.70;;
2644;SDS011;15377;48.540;9.268;2022-11-12T00:39:10;28.90;;;17.60;;
2644;SDS011;15377;48.540;9.268;2022-11-12T00:41:35;28.87;;;17.70;;
2644;SDS011;15377;48.540;9.268;2022-11-12T00:44:01;26.77;;;16.50;;
2644;SDS011;15377;48.540;9.268;2022-11-12T00:46:26;23.90;;;16.30;;
2644;SDS011;15377;48.540;9.268;2022-11-12T00:48:51;26.47;;;18.63;;
2644;SDS011;15377;48.540;9.268;2022-11-12T00:51:17;24.13;;;16.03;;
2644;SDS011;15377;48.540;9.268;2022-11-12T00:53:42;22.20;;;15.60;;
2644;SDS011;15377;48.540;9.268;2022-11-12T00:56:08;29.87;;;16.37;;
2644;SDS011;15377;48.540;9.268;2022-11-12T00:58:34;22.25;;;15.48;;
2644;SDS011;15377;48.540;9.268;2022-11-12T01:01:03;23.25;;;15.10;;
2644;SDS011;15377;48.540;9.268;2022-11-12T01:03:31;22.95;;;14.98;;
2644;SDS011;15377;48.540;9.268;2022-11-12T01:06:10;22.23;;;15.00;;
2644;SDS011;15377;48.540;9.268;2022-11-12T01:08:38;20.77;;;13.90;;
2644;SDS011;15377;48.540;9.268;2022-11-12T01:11:09;23.35;;;14.57;;
2644;SDS011;15377;48.540;9.268;2022-11-12T01:13:37;22.52;;;15.20;;
2644;SDS011;15377;48.540;9.268;2022-11-12T01:16:04;19.92;;;14.77;;
2644;SDS011;15377;48.540;9.268;2022-11-12T01:18:33;22.15;;;13.88;;
2644;SDS011;15377;48.540;9.268;2022-11-12T01:21:00;22.10;;;13.77;;
2644;SDS011;15377;48.540;9.268;2022-11-12T01:23:26;19.25;;;12.85;;
2644;SDS011;15377;48.540;9.268;2022-11-12T01:25:52;23.10;;;14.05;;
2644;SDS011;15377;48.540;9.268;2022-11-12T01:28:18;28.80;;;15.37;;
2644;SDS011;15377;48.540;9.268;2022-11-12T01:30:43;24.23;;;15.00;;
2644;SDS011;15377;48.540;9.268;2022-11-12T01:33:08;28.03;;;15.50;;
2644;SDS011;15377;48.540;9.268;2022-11-12T01:35:34;32.57;;;14.40;;
2644;SDS011;15377;48.540;9.268;2022-11-12T01:37:59;25.50;;;15.10;;
2644;SDS011;15377;48.540;9.268;2022-11-12T01:40:24;25.57;;;15.00;;
2644;SDS011;15377;48.540;9.268;2022-11-12T01:42:51;24.17;;;14.40;;
2644;SDS011;15377;48.540;9.268;2022-11-12T01:45:17;28.05;;;15.25;;
2644;SDS011;15377;48.540;9.268;2022-11-12T01:47:43;32.57;;;15.90;;
2644;SDS011;15377;48.540;9.268;2022-11-12T01:52:42;23.40;;;15.30;;
2644;SDS011;15377;48.540;9.268;2022-11-12T01:55:30;26.02;;;16.15;;
2644;SDS011;15377;48.540;9.268;2022-11-12T01:57:59;27.65;;;18.48;;
2644;SDS011;15377;48.540;9.268;2022-11-12T02:00:32;27.23;;;17.52;;
2644;SDS011;15377;48.540;9.268;2022-11-12T02:02:58;28.83;;;16.07;;
2644;SDS011;15377;48.540;9.268;2022-11-12T02:05:26;30.08;;;17.73;;
2644;SDS011;15377;48.540;9.268;2022-11-12T02:07:53;27.65;;;16.58;;
2644;SDS011;15377;48.540;9.268;2022-11-12T02:10:20;29.38;;;16.17;;
2644;SDS011;15377;48.540;9.268;2022-11-12T02:12:46;26.73;;;15.50;;
2644;SDS011;15377;48.540;9.268;2022-11-12T02:15:32;27.75;;;15.38;;
2644;SDS011;15377;48.540;9.268;2022-11-12T02:17:57;28.70;;;15.00;;
2644;SDS011;15377;48.540;9.268;2022-11-12T02:20:23;24.63;;;15.73;;
2644;SDS011;15377;48.540;9.268;2022-11-12T02:22:48;32.37;;;16.53;;
2644;SDS011;15377;48.540;9.268;2022-11-12T02:25:18;27.00;;;15.03;;
2644;SDS011;15377;48.540;9.268;2022-11-12T02:27:46;27.50;;;16.13;;
2644;SDS011;15377;48.540;9.268;2022-11-12T02:30:16;25.40;;;15.65;;
2644;SDS011;15377;48.540;9.268;2022-11-12T02:32:42;29.50;;;17.13;;
2644;SDS011;15377;48.540;9.268;2022-11-12T02:35:08;32.80;;;15.57;;
2644;SDS011;15377;48.540;9.268;2022-11-12T02:37:33;29.30;;;16.73;;
2644;SDS011;15377;48.540;9.268;2022-11-12T02:39:58;36.43;;;16.37;;
2644;SDS011;15377;48.540;9.268;2022-11-12T02:42:24;33.67;;;17.37;;
2644;SDS011;15377;48.540;9.268;2022-11-12T02:44:49;30.03;;;16.57;;
2644;SDS011;15377;48.540;9.268;2022-11-12T02:47:15;52.03;;;16.23;;
2644;SDS011;15377;48.540;9.268;2022-11-12T02:49:40;27.57;;;16.80;;
2644;SDS011;15377;48.540;9.268;2022-11-12T02:52:05;24.97;;;15.97;;
2644;SDS011;15377;48.540;9.268;2022-11-12T02:54:31;32.67;;;17.20;;
2644;SDS011;15377;48.540;9.268;2022-11-12T02:56:56;21.13;;;14.17;;
2644;SDS011;15377;48.540;9.268;2022-11-12T02:59:21;28.30;;;14.77;;
2644;SDS011;15377;48.540;9.268;2022-11-12T03:01:46;22.43;;;14.37;;
2644;SDS011;15377;48.540;9.268;2022-11-12T03:04:12;28.53;;;14.83;;
2644;SDS011;15377;48.540;9.268;2022-11-12T03:06:37;26.23;;;14.90;;
2644;SDS011;15377;48.540;9.268;2022-11-12T03:09:03;26.43;;;14.83;;
2644;SDS011;15377;48.540;9.268;2022-11-12T03:11:29;26.00;;;15.30;;
2644;SDS011;15377;48.540;9.268;2022-11-12T03:13:55;27.55;;;14.05;;
2644;SDS011;15377;48.540;9.268;2022-11-12T03:16:21;21.60;;;13.57;;
2644;SDS011;15377;48.540;9.268;2022-11-12T03:18:46;23.67;;;14.50;;
2644;SDS011;15377;48.540;9.268;2022-11-12T03:21:11;23.73;;;13.40;;
2644;SDS011;15377;48.540;9.268;2022-11-12T03:23:37;23.63;;;14.20;;
2644;SDS011;15377;48.540;9.268;2022-11-12T03:26:02;25.10;;;15.13;;
2644;SDS011;15377;48.540;9.268;2022-11-12T03:28:28;26.10;;;13.77;;
2644;SDS011;15377;48.540;9.268;2022-11-12T03:30:55;21.50;;;13.50;;
2644;SDS011;15377;48.540;9.268;2022-11-12T03:33:22;23.35;;;14.30;;
2644;SDS011;15377;48.540;9.268;2022-11-12T03:35:48;28.87;;;14.53;;
2644;SDS011;15377;48.540;9.268;2022-11-12T03:38:13;26.60;;;13.87;;
2644;SDS011;15377;48.540;9.268;2022-11-12T03:40:39;29.23;;;13.83;;
2644;SDS011;15377;48.540;9.268;2022-11-12T03:43:04;25.87;;;14.83;;
2644;SDS011;15377;48.540;9.268;2022-11-12T03:45:29;29.03;;;16.30;;
2644;SDS011;15377;48.540;9.268;2022-11-12T03:47:55;27.20;;;16.27;;
2644;SDS011;15377;48.540;9.268;2022-11-12T03:50:22;25.85;;;16.10;;
2644;SDS011;15377;48.540;9.268;2022-11-12T03:52:51;24.20;;;14.82;;
2644;SDS011;15377;48.540;9.268;2022-11-12T03:55:19;25.55;;;14.50;;
2644;SDS011;15377;48.540;9.268;2022-11-12T03:57:46;21.50;;;13.93;;
2644;SDS011;15377;48.540;9.268;2022-11-12T04:00:12;25.38;;;16.58;;
2644;SDS011;15377;48.540;9.268;2022-11-12T04:02:38;20.92;;;13.65;;
2644;SDS011;15377;48.540;9.268;2022-11-12T04:05:04;22.33;;;14.27;;
2644;SDS011;15377;48.540;9.268;2022-11-12T04:08:35;23.60;;;13.85;;
2644;SDS011;15377;48.540;9.268;2022-11-12T04:11:10;21.58;;;14.98;;
2644;SDS011;15377;48.540;9.268;2022-11-12T04:13:41;23.13;;;14.95;;
2644;SDS011;15377;48.540;9.268;2022-11-12T04:16:12;24.77;;;14.23;;
2644;SDS011;15377;48.540;9.268;2022-11-12T04:18:58;22.85;;;14.90;;
2644;SDS011;15377;48.540;9.268;2022-11-12T04:22:01;20.20;;;13.68;;
2644;SDS011;15377;48.540;9.268;2022-11-12T04:27:35;22.08;;;13.90;;
2644;SDS011;15377;48.540;9.268;2022-11-12T04:30:00;19.98;;;13.50;;
2644;SDS011;15377;48.540;9.268;2022-11-12T04:32:46;21.95;;;14.00;;
2644;SDS011;15377;48.540;9.268;2022-11-12T04:35:15;19.98;;;13.32;;
2644;SDS011;15377;48.540;9.268;2022-11-12T04:37:40;18.52;;;12.80;;
2644;SDS011;15377;48.540;9.268;2022-11-12T04:40:16;21.45;;;13.65;;
2644;SDS011;15377;48.540;9.268;2022-11-12T04:43:03;19.02;;;13.50;;
2644;SDS011;15377;48.540;9.268;2022-11-12T04:45:50;19.05;;;12.70;;
2644;SDS011;15377;48.540;9.268;2022-11-12T04:48:17;17.73;;;12.65;;
2644;SDS011;15377;48.540;9.268;2022-11-12T04:50:44;21.95;;;13.07;;
2644;SDS011;15377;48.540;9.268;2022-11-12T04:53:16;23.45;;;13.32;;
2644;SDS011;15377;48.540;9.268;2022-11-12T04:55:42;19.70;;;13.80;;
2644;SDS011;15377;48.540;9.268;2022-11-12T04:58:07;18.90;;;12.23;;
2644;SDS011;15377;48.540;9.268;2022-11-12T05:00:33;20.80;;;14.13;;
2644;SDS011;15377;48.540;9.268;2022-11-12T05:02:58;21.23;;;12.87;;
2644;SDS011;15377;48.540;9.268;2022-11-12T05:05:24;19.43;;;12.73;;
2644;SDS011;15377;48.540;9.268;2022-11-12T05:07:49;16.83;;;12.00;;
2644;SDS011;15377;48.540;9.268;2022-11-12T05:10:14;20.40;;;13.27;;
2644;SDS011;15377;48.540;9.268;2022-11-12T05:12:40;21.17;;;13.40;;
2644;SDS011;15377;48.540;9.268;2022-11-12T05:15:07;18.80;;;12.25;;
2644;SDS011;15377;48.540;9.268;2022-11-12T05:17:32;19.38;;;12.55;;
2644;SDS011;15377;48.540;9.268;2022-11-12T05:19:58;18.57;;;11.50;;
2644;SDS011;15377;48.540;9.268;2022-11-12T05:22:23;20.27;;;12.67;;
2644;SDS011;15377;48.540;9.268;2022-11-12T05:24:48;21.03;;;12.93;;
2644;SDS011;15377;48.540;9.268;2022-11-12T05:27:17;21.83;;;13.43;;
2644;SDS011;15377;48.540;9.268;2022-11-12T05:29:44;21.38;;;12.85;;
2644;SDS011;15377;48.540;9.268;2022-11-12T05:32:10;17.80;;;11.33;;
2644;SDS011;15377;48.540;9.268;2022-11-12T05:34:36;18.70;;;11.75;;
2644;SDS011;15377;48.540;9.268;2022-11-12T05:37:02;17.40;;;11.73;;
2644;SDS011;15377;48.540;9.268;2022-11-12T05:39:29;21.83;;;12.65;;
2644;SDS011;15377;48.540;9.268;2022-11-12T05:41:55;17.10;;;11.60;;
2644;SDS011;15377;48.540;9.268;2022-11-12T05:44:20;16.67;;;10.87;;
2644;SDS011;15377;48.540;9.268;2022-11-12T05:46:46;20.13;;;11.33;;
2644;SDS011;15377;48.540;9.268;2022-11-12T05:49:11;19.10;;;11.65;;
2644;SDS011;15377;48.540;9.268;2022-11-12T05:51:37;17.83;;;11.77;;
2644;SDS011;15377;48.540;9.268;2022-11-12T05:54:02;18.80;;;11.60;;
2644;SDS011;15377;48.540;9.268;2022-11-12T05:56:28;18.50;;;11.33;;
2644;SDS011;15377;48.540;9.268;2022-11-12T05:58:53;17.23;;;10.83;;
2644;SDS011;15377;48.540;9.268;2022-11-12T06:01:19;16.77;;;11.20;;
2644;SDS011;15377;48.540;9.268;2022-11-12T06:03:45;16.83;;;11.03;;
2644;SDS011;15377;48.540;9.268;2022-11-12T06:06:10;16.07;;;11.10;;
2644;SDS011;15377;48.540;9.268;2022-11-12T06:08:36;18.13;;;11.60;;
2644;SDS011;15377;48.540;9.268;2022-11-12T06:11:01;20.60;;;11.50;;
2644;SDS011;15377;48.540;9.268;2022-11-12T06:13:27;18.73;;;11.50;;
2644;SDS011;15377;48.540;9.268;2022-11-12T06:15:52;19.60;;;11.30;;
2644;SDS011;15377;48.540;9.268;2022-11-12T06:18:19;17.23;;;11.63;;
2644;SDS011;15377;48.540;9.268;2022-11-12T06:20:44;20.27;;;12.40;;
2644;SDS011;15377;48.540;9.268;2022-11-12T06:23:30;28.77;;;14.82;;
2644;SDS011;15377;48.540;9.268;2022-11-12T06:25:55;18.67;;;12.20;;
2644;SDS011;15377;48.540;9.268;2022-11-12T06:28:20;18.73;;;12.77;;
2644;SDS011;15377;48.540;9.268;2022-11-12T06:30:46;19.10;;;12.23;;
2644;SDS011;15377;48.540;9.268;2022-11-12T06:33:11;18.03;;;12.40;;
2644;SDS011;15377;48.540;9.268;2022-11-12T06:35:36;21.23;;;13.13;;
2644;SDS011;15377;48.540;9.268;2022-11-12T06:38:02;20.70;;;13.10;;
2644;SDS011;15377;48.540;9.268;2022-11-12T06:40:27;17.17;;;11.60;;
2644;SDS011;15377;48.540;9.268;2022-11-12T06:42:56;18.50;;;11.47;;
2644;SDS011;15377;48.540;9.268;2022-11-12T06:45:22;18.13;;;12.27;;
2644;SDS011;15377;48.540;9.268;2022-11-12T06:47:48;19.77;;;12.30;;
2644;SDS011;15377;48.540;9.268;2022-11-12T06:50:13;23.17;;;14.13;;
2644;SDS011;15377;48.540;9.268;2022-11-12T06:52:39;23.13;;;14.10;;
2644;SDS011;15377;48.540;9.268;2022-11-12T06:55:04;21.07;;;12.57;;
2644;SDS011;15377;48.540;9.268;2022-11-12T06:57:30;20.50;;;13.30;;
2644;SDS011;15377;48.540;9.268;2022-11-12T06:59:55;22.50;;;13.23;;
2644;SDS011;15377;48.540;9.268;2022-11-12T07:02:20;22.77;;;13.33;;
2644;SDS011;15377;48.540;9.268;2022-11-12T07:04:46;20.70;;;13.90;;
2644;SDS011;15377;48.540;9.268;2022-11-12T07:07:11;22.50;;;14.67;;
2644;SDS011;15377;48.540;9.268;2022-11-12T07:09:36;25.63;;;13.30;;
2644;SDS011;15377;48.540;9.268;2022-11-12T07:12:02;21.00;;;13.27;;
2644;SDS011;15377;48.540;9.268;2022-11-12T07:14:27;16.47;;;11.53;;
2644;SDS011;15377;48.540;9.268;2022-11-12T07:16:52;16.87;;;12.67;;
2644;SDS011;15377;48.540;9.268;2022-11-12T07:19:18;26.57;;;13.23;;
2644;SDS011;15377;48.540;9.268;2022-11-12T07:21:43;21.53;;;13.33;;
2644;SDS011;15377;48.540;9.268;2022-11-12T07:24:08;19.10;;;13.00;;
2644;SDS011;15377;48.540;9.268;2022-11-12T07:26:34;19.70;;;11.53;;
2644;SDS011;15377;48.540;9.268;2022-11-12T07:28:59;22.30;;;15.17;;
2644;SDS011;15377;48.540;9.268;2022-11-12T07:31:25;22.60;;;12.40;;
2644;SDS011;15377;48.540;9.268;2022-11-12T07:33:50;19.07;;;12.37;;
2644;SDS011;15377;48.540;9.268;2022-11-12T07:36:17;23.00;;;14.83;;
2644;SDS011;15377;48.540;9.268;2022-11-12T07:38:44;21.15;;;12.75;;
2644;SDS011;15377;48.540;9.268;2022-11-12T07:41:20;20.58;;;13.10;;
2644;SDS011;15377;48.540;9.268;2022-11-12T07:43:49;17.45;;;10.15;;
2644;SDS011;15377;48.540;9.268;2022-11-12T07:46:17;16.27;;;10.05;;
2644;SDS011;15377;48.540;9.268;2022-11-12T07:48:44;28.65;;;19.00;;
2644;SDS011;15377;48.540;9.268;2022-11-12T07:53:38;17.63;;;10.20;;
2644;SDS011;15377;48.540;9.268;2022-11-12T07:56:03;18.30;;;11.93;;
2644;SDS011;15377;48.540;9.268;2022-11-12T07:58:30;22.05;;;12.02;;
2644;SDS011;15377;48.540;9.268;2022-11-12T08:00:56;17.20;;;10.65;;
2644;SDS011;15377;48.540;9.268;2022-11-12T08:03:22;16.50;;;10.82;;
2644;SDS011;15377;48.540;9.268;2022-11-12T08:05:48;17.70;;;10.83;;
2644;SDS011;15377;48.540;9.268;2022-11-12T08:08:14;18.88;;;11.75;;
2644;SDS011;15377;48.540;9.268;2022-11-12T08:10:40;17.33;;;11.07;;
2644;SDS011;15377;48.540;9.268;2022-11-12T08:13:05;17.97;;;10.30;;
2644;SDS011;15377;48.540;9.268;2022-11-12T08:15:31;15.93;;;10.37;;
2644;SDS011;15377;48.540;9.268;2022-11-12T08:17:56;17.77;;;10.97;;
2644;SDS011;15377;48.540;9.268;2022-11-12T08:20:22;16.43;;;11.60;;
2644;SDS011;15377;48.540;9.268;2022-11-12T08:22:47;16.70;;;11.63;;
2644;SDS011;15377;48.540;9.268;2022-11-12T08:25:13;18.87;;;11.83;;
2644;SDS011;15377;48.540;9.268;2022-11-12T08:27:39;17.93;;;12.30;;
2644;SDS011;15377;48.540;9.268;2022-11-12T08:30:04;15.97;;;10.53;;
2644;SDS011;15377;48.540;9.268;2022-11-12T08:32:30;15.65;;;10.18;;
2644;SDS011;15377;48.540;9.268;2022-11-12T08:34:56;12.30;;;9.13;;
2644;SDS011;15377;48.540;9.268;2022-11-12T08:37:21;13.90;;;9.07;;
2644;SDS011;15377;48.540;9.268;2022-11-12T08:39:47;15.57;;;9.70;;
2644;SDS011;15377;48.540;9.268;2022-11-12T08:42:12;14.50;;;9.67;;
2644;SDS011;15377;48.540;9.268;2022-11-12T08:44:37;13.97;;;8.97;;
2644;SDS011;15377;48.540;9.268;2022-11-12T08:47:03;14.10;;;8.27;;
2644;SDS011;15377;48.540;9.268;2022-11-12T08:49:28;11.20;;;7.17;;
2644;SDS011;15377;48.540;9.268;2022-11-12T08:51:54;15.17;;;9.37;;
2644;SDS011;15377;48.540;9.268;2022-11-12T08:54:19;11.53;;;7.27;;
2644;SDS011;15377;48.540;9.268;2022-11-12T08:56:45;11.43;;;6.77;;
2644;SDS011;15377;48.540;9.268;2022-11-12T08:59:10;12.00;;;7.53;;
2644;SDS011;15377;48.540;9.268;2022-11-12T09:01:36;7.47;;;4.87;;
2644;SDS011;15377;48.540;9.268;2022-11-12T09:04:01;8.20;;;5.23;;
2644;SDS011;15377;48.540;9.268;2022-11-12T09:06:27;8.37;;;5.20;;
2644;SDS011;15377;48.540;9.268;2022-11-12T09:08:52;8.30;;;4.50;;
2644;SDS011;15377;48.540;9.268;2022-11-12T09:11:17;8.13;;;4.80;;
2644;SDS011;15377;48.540;9.268;2022-11-12T09:13:43;9.80;;;6.17;;
2644;SDS011;15377;48.540;9.268;2022-11-12T09:16:08;8.90;;;5.03;;
2644;SDS011;15377;48.540;9.268;2022-11-12T09:18:34;11.40;;;5.27;;
2644;SDS011;15377;48.540;9.268;2022-11-12T09:21:04;7.60;;;5.00;;
2644;SDS011;15377;48.540;9.268;2022-11-12T09:23:32;11.43;;;5.40;;
2644;SDS011;15377;48.540;9.268;2022-11-12T09:25:59;8.97;;;5.57;;
2644;SDS011;15377;48.540;9.268;2022-11-12T09:28:24;8.23;;;5.40;;
2644;SDS011;15377;48.540;9.268;2022-11-12T09:30:50;9.83;;;5.13;;
2644;SDS011;15377;48.540;9.268;2022-11-12T09:33:21;8.50;;;4.97;;
2644;SDS011;15377;48.540;9.268;2022-11-12T09:35:53;7.47;;;5.07;;
2644;SDS011;15377;48.540;9.268;2022-11-12T09:38:22;8.83;;;5.33;;
2644;SDS011;15377;48.540;9.268;2022-11-12T09:44:17;8.17;;;5.13;;
2644;SDS011;15377;48.540;9.268;2022-11-12T09:46:27;10.57;;;5.33;;
2644;SDS011;15377;48.540;9.268;2022-11-12T09:48:58;9.00;;;5.23;;
2644;SDS011;15377;48.540;9.268;2022-11-12T09:51:34;10.93;;;6.20;;
2644;SDS011;15377;48.540;9.268;2022-11-12T09:54:05;9.13;;;5.80;;
2644;SDS011;15377;48.540;9.268;2022-11-12T09:56:38;9.63;;;5.37;;
2644;SDS011;15377;48.540;9.268;2022-11-12T09:59:08;11.07;;;5.93;;
2644;SDS011;15377;48.540;9.268;2022-11-12T10:01:48;12.70;;;6.50;;
2644;SDS011;15377;48.540;9.268;2022-11-12T10:04:37;8.10;;;5.43;;
2644;SDS011;15377;48.540;9.268;2022-11-12T10:10:15;9.03;;;5.27;;
2644;SDS011;15377;48.540;9.268;2022-11-12T10:18:18;8.00;;;4.60;;
2644;SDS011;15377;48.540;9.268;2022-11-12T10:20:48;7.40;;;4.67;;
2644;SDS011;15377;48.540;9.268;2022-11-12T10:23:28;9.53;;;5.43;;
2644;SDS011;15377;48.540;9.268;2022-11-12T10:26:00;8.30;;;4.50;;
2644;SDS011;15377;48.540;9.268;2022-11-12T10:28:42;7.50;;;4.47;;
2644;SDS011;15377;48.540;9.268;2022-11-12T10:31:13;12.00;;;6.67;;
2644;SDS011;15377;48.540;9.268;2022-11-12T10:33:40;8.70;;;5.90;;
2644;SDS011;15377;48.540;9.268;2022-11-12T10:38:54;9.63;;;5.80;;
2644;SDS011;15377;48.540;9.268;2022-11-12T10:41:27;9.07;;;5.40;;
2644;SDS011;15377;48.540;9.268;2022-11-12T10:43:58;10.23;;;6.97;;
2644;SDS011;15377;48.540;9.268;2022-11-12T10:46:29;7.80;;;5.13;;
2644;SDS011;15377;48.540;9.268;2022-11-12T10:51:28;8.67;;;5.47;;
2644;SDS011;15377;48.540;9.268;2022-11-12T10:53:53;9.70;;;6.20;;
2644;SDS011;15377;48.540;9.268;2022-11-12T10:56:26;9.80;;;5.90;;
2644;SDS011;15377;48.540;9.268;2022-11-12T11:01:38;8.80;;;5.73;;
2644;SDS011;15377;48.540;9.268;2022-11-12T11:04:03;8.93;;;5.10;;
2644;SDS011;15377;48.540;9.268;2022-11-12T11:06:39;9.70;;;5.60;;
2644;SDS011;15377;48.540;9.268;2022-11-12T11:09:13;8.80;;;5.43;;
2644;SDS011;15377;48.540;9.268;2022-11-12T11:11:47;9.03;;;5.90;;
2644;SDS011;15377;48.540;9.268;2022-11-12T11:16:49;8.83;;;5.37;;
2644;SDS011;15377;48.540;9.268;2022-11-12T11:19:18;8.80;;;5.43;;
2644;SDS011;15377;48.540;9.268;2022-11-12T11:29:34;12.80;;;7.80;;
2644;SDS011;15377;48.540;9.268;2022-11-12T11:32:12;10.03;;;6.20;;
2644;SDS011;15377;48.540;9.268;2022-11-12T11:34:42;9.90;;;6.03;;
2644;SDS011;15377;48.540;9.268;2022-11-12T11:37:28;9.37;;;6.53;;
2644;SDS011;15377;48.540;9.268;2022-11-12T11:40:09;9.97;;;6.60;;
2644;SDS011;15377;48.540;9.268;2022-11-12T11:43:13;9.20;;;6.13;;
2644;SDS011;15377;48.540;9.268;2022-11-12T11:56:27;8.87;;;5.80;;
2644;SDS011;15377;48.540;9.268;2022-11-12T12:09:43;11.93;;;8.00;;
2644;SDS011;15377;48.540;9.268;2022-11-12T12:12:19;11.10;;;7.90;;
2644;SDS011;15377;48.540;9.268;2022-11-12T12:17:42;10.17;;;6.37;;
2644;SDS011;15377;48.540;9.268;2022-11-12T12:23:05;9.33;;;7.17;;
2644;SDS011;15377;48.540;9.268;2022-11-12T12:25:42;13.27;;;8.30;;
2644;SDS011;15377;48.540;9.268;2022-11-12T12:28:32;10.10;;;6.47;;
2644;SDS011;15377;48.540;9.268;2022-11-12T12:31:06;28.30;;;19.13;;
2644;SDS011;15377;48.540;9.268;2022-11-12T12:33:49;9.47;;;6.83;;
2644;SDS011;15377;48.540;9.268;2022-11-12T12:36:25;15.60;;;11.27;;
2644;SDS011;15377;48.540;9.268;2022-11-12T12:41:47;9.00;;;6.20;;
2644;SDS011;15377;48.540;9.268;2022-11-12T12:44:38;10.10;;;6.60;;
2644;SDS011;15377;48.540;9.268;2022-11-12T12:47:29;9.37;;;7.00;;
2644;SDS011;15377;48.540;9.268;2022-11-12T12:49:59;12.17;;;7.87;;
2644;SDS011;15377;48.540;9.268;2022-11-12T12:52:29;10.93;;;8.20;;
2644;SDS011;15377;48.540;9.268;2022-11-12T12:55:35;10.70;;;7.43;;
2644;SDS011;15377;48.540;9.268;2022-11-12T12:58:14;12.73;;;9.03;;
2644;SDS011;15377;48.540;9.268;2022-11-12T13:06:38;11.23;;;7.60;;
2644;SDS011;15377;48.540;9.268;2022-11-12T13:19:26;10.97;;;7.80;;
2644;SDS011;15377;48.540;9.268;2022-11-12T13:35:14;9.07;;;6.37;;
2644;SDS011;15377;48.540;9.268;2022-11-12T13:40:32;10.83;;;7.73;;
2644;SDS011;15377;48.540;9.268;2022-11-12T13:43:12;9.90;;;6.50;;
2644;SDS011;15377;48.540;9.268;2022-11-12T13:45:52;11.03;;;6.70;;
2644;SDS011;15377;48.540;9.268;2022-11-12T13:48:22;9.30;;;6.63;;
2644;SDS011;15377;48.540;9.268;2022-11-12T13:51:02;11.23;;;7.43;;
2644;SDS011;15377;48.540;9.268;2022-11-12T13:53:31;10.57;;;6.60;;
2644;SDS011;15377;48.540;9.268;2022-11-12T13:55:57;9.90;;;6.37;;
2644;SDS011;15377;48.540;9.268;2022-11-12T14:00:52;11.40;;;7.73;;
2644;SDS011;15377;48.540;9.268;2022-11-12T14:03:19;10.40;;;6.83;;
2644;SDS011;15377;48.540;9.268;2022-11-12T14:05:46;12.77;;;7.67;;
2644;SDS011;15377;48.540;9.268;2022-11-12T14:11:12;10.63;;;7.53;;
2644;SDS011;15377;48.540;9.268;2022-11-12T14:21:58;15.97;;;9.20;;
2644;SDS011;15377;48.540;9.268;2022-11-12T14:24:33;12.20;;;8.37;;
2644;SDS011;15377;48.540;9.268;2022-11-12T14:26:59;12.23;;;8.07;;
2644;SDS011;15377;48.540;9.268;2022-11-12T14:29:24;11.60;;;7.73;;
2644;SDS011;15377;48.540;9.268;2022-11-12T14:31:58;13.90;;;8.23;;
2644;SDS011;15377;48.540;9.268;2022-11-12T14:36:53;11.57;;;7.83;;
2644;SDS011;15377;48.540;9.268;2022-11-12T14:39:20;14.10;;;9.00;;
2644;SDS011;15377;48.540;9.268;2022-11-12T14:41:50;29.00;;;19.40;;
2644;SDS011;15377;48.540;9.268;2022-11-12T14:44:20;12.40;;;7.80;;
2644;SDS011;15377;48.540;9.268;2022-11-12T14:46:52;12.23;;;7.80;;
2644;SDS011;15377;48.540;9.268;2022-11-12T14:49:38;11.10;;;7.17;;
2644;SDS011;15377;48.540;9.268;2022-11-12T14:52:11;10.93;;;7.13;;
2644;SDS011;15377;48.540;9.268;2022-11-12T14:54:47;13.73;;;8.30;;
2644;SDS011;15377;48.540;9.268;2022-11-12T14:57:25;11.83;;;7.80;;
2644;SDS011;15377;48.540;9.268;2022-11-12T14:59:52;11.80;;;7.30;;
2644;SDS011;15377;48.540;9.268;2022-11-12T15:02:22;12.83;;;8.40;;
2644;SDS011;15377;48.540;9.268;2022-11-12T15:05:02;14.30;;;8.70;;
2644;SDS011;15377;48.540;9.268;2022-11-12T15:07:50;17.53;;;8.47;;
2644;SDS011;15377;48.540;9.268;2022-11-12T15:10:27;13.90;;;7.97;;
2644;SDS011;15377;48.540;9.268;2022-11-12T15:13:03;13.93;;;8.30;;
2644;SDS011;15377;48.540;9.268;2022-11-12T15:15:31;11.03;;;8.10;;
2644;SDS011;15377;48.540;9.268;2022-11-12T15:17:58;17.90;;;8.97;;
2644;SDS011;15377;48.540;9.268;2022-11-12T15:20:26;13.03;;;9.30;;
2644;SDS011;15377;48.540;9.268;2022-11-12T15:22:52;12.50;;;8.67;;
2644;SDS011;15377;48.540;9.268;2022-11-12T15:25:19;13.50;;;8.80;;
2644;SDS011;15377;48.540;9.268;2022-11-12T15:27:47;14.73;;;10.10;;
2644;SDS011;15377;48.540;9.268;2022-11-12T15:33:05;17.80;;;9.50;;
2644;SDS011;15377;48.540;9.268;2022-11-12T15:35:32;14.67;;;8.10;;
2644;SDS011;15377;48.540;9.268;2022-11-12T15:38:00;13.40;;;8.73;;
2644;SDS011;15377;48.540;9.268;2022-11-12T15:40:31;12.30;;;8.50;;
2644;SDS011;15377;48.540;9.268;2022-11-12T15:43:17;13.97;;;9.00;;
2644;SDS011;15377;48.540;9.268;2022-11-12T15:45:48;12.97;;;8.23;;
2644;SDS011;15377;48.540;9.268;2022-11-12T15:48:17;15.97;;;9.97;;
2644;SDS011;15377;48.540;9.268;2022-11-12T15:50:43;16.10;;;8.63;;
2644;SDS011;15377;48.540;9.268;2022-11-12T15:53:08;16.33;;;9.23;;
2644;SDS011;15377;48.540;9.268;2022-11-12T15:55:34;17.00;;;9.60;;
2644;SDS011;15377;48.540;9.268;2022-11-12T15:58:02;12.93;;;9.80;;
2644;SDS011;15377;48.540;9.268;2022-11-12T16:00:33;16.97;;;9.73;;
2644;SDS011;15377;48.540;9.268;2022-11-12T16:03:10;13.43;;;8.50;;
2644;SDS011;15377;48.540;9.268;2022-11-12T16:05:36;13.67;;;8.77;;
2644;SDS011;15377;48.540;9.268;2022-11-12T16:08:02;14.20;;;8.17;;
2644;SDS011;15377;48.540;9.268;2022-11-12T16:10:27;13.87;;;8.13;;
2644;SDS011;15377;48.540;9.268;2022-11-12T16:12:53;15.07;;;8.53;;
2644;SDS011;15377;48.540;9.268;2022-11-12T16:15:23;15.10;;;9.13;;
2644;SDS011;15377;48.540;9.268;2022-11-12T16:17:50;12.80;;;8.63;;
2644;SDS011;15377;48.540;9.268;2022-11-12T16:20:21;13.43;;;9.20;;
2644;SDS011;15377;48.540;9.268;2022-11-12T16:22:49;17.10;;;10.67;;
2644;SDS011;15377;48.540;9.268;2022-11-12T16:25:15;14.27;;;9.57;;
2644;SDS011;15377;48.540;9.268;2022-11-12T16:27:42;15.80;;;9.80;;
2644;SDS011;15377;48.540;9.268;2022-11-12T16:30:14;16.80;;;10.80;;
2644;SDS011;15377;48.540;9.268;2022-11-12T16:32:41;13.82;;;9.45;;
2644;SDS011;15377;48.540;9.268;2022-11-12T16:35:07;12.85;;;9.27;;
2644;SDS011;15377;48.540;9.268;2022-11-12T16:37:34;15.98;;;9.77;;
2644;SDS011;15377;48.540;9.268;2022-11-12T16:40:02;15.27;;;9.30;;
2644;SDS011;15377;48.540;9.268;2022-11-12T16:42:29;13.83;;;8.43;;
2644;SDS011;15377;48.540;9.268;2022-11-12T16:44:54;12.80;;;8.63;;
2644;SDS011;15377;48.540;9.268;2022-11-12T16:47:19;13.10;;;9.43;;
2644;SDS011;15377;48.540;9.268;2022-11-12T16:49:44;14.80;;;8.90;;